SBOSBO AGP / LEMG
Speedbird OnlineSpeedbird Online AGP / LEMG

Málaga Airport
06:56 3.7°C

Location Malaga, Spain
Latitude: 36.67490005493164
Longitude: -4.499110221862793
Web Airport Website | Wikipedia
Altitude 16 Meter / 53 Feet
Distance 1,690 KM / 1,050 Miles
from London.
Time Zone UTC +1 hours (Europe/Madrid)
Codes IATA: AGP
ICAO: LEMG
Currency £1 equals EUR 1.14
Runways
RunwayLength (m)Surface
122750Asphalt
133200Asphalt
302750Asphalt
313200Asphalt
Radio
TypeDescriptionFrequency
APPAPP Dep118.455
APPAPP Arr123.85
ATISATIS120.375
CLDCLR DEL121.88
GNDGND-W121.705
GNDGND-E121.95
TWRTWR-W (RWY 13-31)118.15
TWRTWR-E (RWY 12-30)118.775
Live ATC
METAR LEMG 290530Z 29010KT CAVOK 02/M02 Q1020 NOSIG
TAF TAF LEMG 290500Z 2906/3006 29007KT CAVOK TX13/2915Z TN07/2906Z BECMG 2910/2912 12010KT BECMG 3000/3002 29006KT
Weather As Of 29 Jan 2023 06:56
Description Clear sky
Wind 19 km/h from West (290°)
Cloud Cover 0%
Precipitation Rain: none, Snow: none
Sunrise 08:22
Sunset 18:39
Lounges Sala VIP Lounge , Terminal 3
Rotations During the last 90 days there were
118 flights from LGW
74 flights from LHR
39 flights from LCY
116 flights to LGW
72 flights to LHR
37 flights to LCY
1 flights to BHX



Support Speedbird Online

© 2017-2023 Speedbird Online